createdAt,value
2022-08-04T00:01:36.810Z,1.83
2022-08-04T00:04:08.591Z,1.88
2022-08-04T00:06:47.370Z,1.65
2022-08-04T00:09:22.255Z,1.85
2022-08-04T00:11:52.813Z,1.80
2022-08-04T00:14:22.038Z,1.70
2022-08-04T00:16:50.388Z,1.77
2022-08-04T00:19:29.347Z,1.80
2022-08-04T00:22:04.147Z,1.90
2022-08-04T00:24:31.616Z,1.70
2022-08-04T00:26:58.723Z,1.65
2022-08-04T00:29:25.453Z,1.83
2022-08-04T00:31:54.653Z,1.70
2022-08-04T00:34:26.988Z,1.55
2022-08-04T00:36:55.538Z,1.52
2022-08-04T00:39:22.879Z,1.80
2022-08-04T00:42:23.863Z,1.50
2022-08-04T00:45:16.273Z,1.63
2022-08-04T00:48:04.578Z,1.60
2022-08-04T00:50:55.227Z,1.58
2022-08-04T00:53:24.774Z,1.88
2022-08-04T00:56:25.271Z,1.60
2022-08-04T00:59:21.747Z,1.90
2022-08-04T01:01:54.619Z,1.70
2022-08-04T01:04:41.164Z,1.60
2022-08-04T01:07:44.756Z,1.70
2022-08-04T01:10:30.593Z,1.88
2022-08-04T01:13:15.021Z,1.73
2022-08-04T01:16:05.375Z,1.90
2022-08-04T01:18:50.344Z,1.50
2022-08-04T01:21:31.537Z,2.00
2022-08-04T01:24:03.831Z,1.80
2022-08-04T01:27:06.857Z,1.75
2022-08-04T01:29:47.261Z,2.10
2022-08-04T01:32:35.651Z,2.00
2022-08-04T01:35:46.264Z,1.95
2022-08-04T01:38:37.054Z,1.80
2022-08-04T01:41:06.708Z,2.10
2022-08-04T01:43:36.255Z,1.85
2022-08-04T01:46:05.478Z,1.85
2022-08-04T01:48:36.621Z,2.10
2022-08-04T01:51:06.169Z,2.08
2022-08-04T01:53:37.885Z,1.80
2022-08-04T01:56:06.749Z,2.10
2022-08-04T01:58:36.177Z,2.08
2022-08-04T02:01:11.425Z,2.10
2022-08-04T02:04:20.973Z,2.05
2022-08-04T02:07:02.591Z,2.65
2022-08-04T02:09:54.185Z,1.90
2022-08-04T02:12:31.354Z,2.10
2022-08-04T02:15:07.547Z,1.80
2022-08-04T02:17:52.487Z,2.00
2022-08-04T02:20:33.578Z,1.95
2022-08-04T02:23:03.423Z,2.33
2022-08-04T02:25:39.512Z,2.35
2022-08-04T02:28:15.139Z,2.28
2022-08-04T02:30:44.934Z,1.90
2022-08-04T02:33:16.899Z,1.95
2022-08-04T02:35:47.055Z,1.92
2022-08-04T02:38:48.026Z,1.92
2022-08-04T02:41:16.911Z,1.67
2022-08-04T02:43:51.040Z,2.30
2022-08-04T02:46:20.751Z,2.45
2022-08-04T02:48:49.042Z,2.45
2022-08-04T02:51:21.703Z,2.35
2022-08-04T02:53:53.045Z,2.28
2022-08-04T02:56:20.447Z,2.10
2022-08-04T02:58:52.923Z,2.28
2022-08-04T03:01:23.171Z,2.10
2022-08-04T03:04:24.173Z,2.00
2022-08-04T03:09:48.675Z,2.15
2022-08-04T03:12:58.937Z,2.05
2022-08-04T03:15:59.847Z,2.30
2022-08-04T03:19:03.693Z,2.00
2022-08-04T03:22:05.519Z,2.28
2022-08-04T03:24:47.415Z,2.30
2022-08-04T03:27:38.037Z,2.50
2022-08-04T03:30:18.686Z,2.00
2022-08-04T03:33:09.410Z,2.13
2022-08-04T03:36:13.666Z,2.20
2022-08-04T03:38:40.175Z,1.90
2022-08-04T03:41:55.002Z,2.30
2022-08-04T03:44:52.343Z,2.10
2022-08-04T03:48:09.778Z,1.80
2022-08-04T03:50:41.424Z,2.22
2022-08-04T03:53:46.905Z,2.17
2022-08-04T03:56:34.706Z,2.33
2022-08-04T03:59:24.427Z,1.75
2022-08-04T04:02:02.247Z,2.38
2022-08-04T04:04:45.411Z,2.20
2022-08-04T04:07:36.084Z,3.05
2022-08-04T04:10:37.558Z,2.10
2022-08-04T04:13:25.774Z,2.37
2022-08-04T04:15:52.287Z,2.10
2022-08-04T04:18:38.683Z,2.35
2022-08-04T04:21:20.416Z,2.58
2022-08-04T04:26:25.226Z,2.30
2022-08-04T04:29:16.085Z,2.03
2022-08-04T04:31:48.842Z,2.30
2022-08-04T04:34:50.139Z,2.22
2022-08-04T04:37:47.831Z,2.30
2022-08-04T04:40:40.575Z,2.38
2022-08-04T04:43:22.099Z,1.80
2022-08-04T04:46:43.478Z,2.35
2022-08-04T04:49:32.043Z,2.10
2022-08-04T04:52:09.834Z,2.63
2022-08-04T04:54:51.477Z,2.20
2022-08-04T05:00:09.487Z,2.20
2022-08-04T05:03:07.262Z,2.22
2022-08-04T05:05:47.543Z,2.30
2022-08-04T05:08:43.440Z,2.30
2022-08-04T05:11:21.940Z,2.15
2022-08-04T05:14:36.037Z,2.30
2022-08-04T05:16:47.740Z,2.33
2022-08-04T05:19:26.363Z,2.05
2022-08-04T05:22:18.618Z,2.70
2022-08-04T05:24:47.917Z,2.50
2022-08-04T05:27:28.561Z,2.78
2022-08-04T05:29:59.401Z,2.67
2022-08-04T05:32:37.465Z,2.67
2022-08-04T05:35:09.707Z,2.53
2022-08-04T05:37:40.438Z,2.65
2022-08-04T05:40:09.260Z,3.08
2022-08-04T05:42:39.079Z,2.58
2022-08-04T05:45:08.045Z,2.63
2022-08-04T05:47:35.285Z,2.60
2022-08-04T05:50:06.635Z,2.53
2022-08-04T05:55:02.736Z,2.25
2022-08-04T05:57:30.492Z,2.50
2022-08-04T06:00:00.272Z,2.47
2022-08-04T06:02:28.475Z,2.58
2022-08-04T06:04:56.478Z,2.50
2022-08-04T06:07:23.679Z,2.20
2022-08-04T06:09:50.368Z,2.17
2022-08-04T06:12:25.254Z,2.95
2022-08-04T06:14:59.399Z,2.63
2022-08-04T06:18:32.834Z,2.30
2022-08-04T06:22:55.587Z,2.80
2022-08-04T06:25:34.278Z,2.55
2022-08-04T06:28:05.521Z,2.70
2022-08-04T06:33:05.210Z,2.22
2022-08-04T06:35:33.797Z,2.20
2022-08-04T06:38:03.112Z,2.33
2022-08-04T06:40:33.857Z,2.50
2022-08-04T06:43:07.291Z,2.33
2022-08-04T06:45:38.173Z,2.30
2022-08-04T06:48:06.559Z,2.22
2022-08-04T06:51:32.678Z,2.60
2022-08-04T06:53:23.039Z,2.33
2022-08-04T06:55:50.878Z,2.60
2022-08-04T06:58:20.261Z,2.17
2022-08-04T07:00:48.489Z,2.40
2022-08-04T07:03:18.168Z,2.70
2022-08-04T07:05:47.406Z,2.53
2022-08-04T07:08:14.546Z,2.45
2022-08-04T07:10:41.452Z,2.30
2022-08-04T07:13:10.641Z,2.17
2022-08-04T07:15:41.342Z,2.10
2022-08-04T07:18:08.118Z,2.47
2022-08-04T07:20:36.765Z,2.17
2022-08-04T07:23:05.783Z,2.83
2022-08-04T07:26:00.574Z,2.20
2022-08-04T07:28:23.648Z,2.10
2022-08-04T07:30:50.662Z,1.92
2022-08-04T07:33:18.427Z,2.00
2022-08-04T07:36:05.027Z,2.08
2022-08-04T07:38:37.538Z,2.35
2022-08-04T07:41:35.340Z,2.20
2022-08-04T07:43:54.863Z,2.28
2022-08-04T07:46:21.797Z,1.98
2022-08-04T07:48:48.740Z,2.17
2022-08-04T07:51:16.980Z,1.88
2022-08-04T07:53:54.186Z,2.00
2022-08-04T07:56:23.071Z,2.25
2022-08-04T07:58:50.434Z,2.78
2022-08-04T08:01:17.563Z,2.10
2022-08-04T08:03:44.516Z,2.10
2022-08-04T08:06:17.219Z,2.40
2022-08-04T08:09:12.709Z,1.90
2022-08-04T08:12:35.301Z,1.95
2022-08-04T08:14:35.605Z,2.00
2022-08-04T08:17:03.348Z,2.08
2022-08-04T08:19:31.732Z,2.20
2022-08-04T08:22:00.832Z,1.85
2022-08-04T08:24:35.369Z,2.13
2022-08-04T08:27:04.886Z,2.00
2022-08-04T08:29:33.719Z,1.90
2022-08-04T08:32:07.250Z,2.00
2022-08-04T08:34:35.371Z,1.80
2022-08-04T08:37:28.209Z,1.75
2022-08-04T08:40:04.214Z,2.10
2022-08-04T08:42:49.281Z,2.05
2022-08-04T08:45:17.750Z,2.00
2022-08-04T08:48:33.576Z,2.15
2022-08-04T08:51:31.652Z,1.80
2022-08-04T08:54:04.035Z,2.05
2022-08-04T08:56:54.043Z,1.85
2022-08-04T08:59:38.490Z,2.00
2022-08-04T09:02:32.751Z,2.10
2022-08-04T09:05:18.463Z,2.03
2022-08-04T09:08:06.061Z,1.90
2022-08-04T09:10:45.291Z,1.80
2022-08-04T09:13:21.358Z,1.70
2022-08-04T09:16:02.577Z,1.60
2022-08-04T09:18:38.690Z,1.55
2022-08-04T09:21:22.979Z,1.70
2022-08-04T09:24:36.610Z,1.58
2022-08-04T09:27:01.818Z,1.70
2022-08-04T09:29:37.623Z,1.75
2022-08-04T09:32:35.303Z,2.00
2022-08-04T09:35:34.768Z,2.00
2022-08-04T09:38:20.989Z,2.10
2022-08-04T09:40:57.341Z,1.70
2022-08-04T09:43:28.094Z,2.08
2022-08-04T09:46:26.311Z,1.90
2022-08-04T09:49:11.511Z,1.95
2022-08-04T09:52:16.997Z,1.63
2022-08-04T09:54:53.292Z,1.70
2022-08-04T09:57:41.687Z,1.70
2022-08-04T10:00:10.769Z,1.98
2022-08-04T10:02:42.738Z,2.08
2022-08-04T10:05:18.692Z,2.40
2022-08-04T10:08:17.206Z,1.80
2022-08-04T10:11:21.601Z,1.95
2022-08-04T10:13:54.470Z,1.90
2022-08-04T10:16:29.964Z,1.80
2022-08-04T10:19:11.792Z,2.00
2022-08-04T10:22:29.018Z,1.88
2022-08-04T10:26:03.262Z,1.80
2022-08-04T10:28:15.529Z,2.00
2022-08-04T10:30:50.028Z,2.40
2022-08-04T10:33:30.989Z,1.70
2022-08-04T10:36:03.191Z,2.20
2022-08-04T10:38:40.866Z,2.30
2022-08-04T10:41:35.139Z,1.85
2022-08-04T10:44:12.610Z,1.85
2022-08-04T10:46:47.374Z,2.00
2022-08-04T10:49:25.049Z,1.60
2022-08-04T10:51:59.991Z,1.70
2022-08-04T10:54:33.308Z,1.83
2022-08-04T10:57:07.695Z,1.63
2022-08-04T10:59:58.041Z,1.50
2022-08-04T11:02:51.445Z,1.88
2022-08-04T11:05:46.546Z,1.70
2022-08-04T11:08:21.945Z,1.85
2022-08-04T11:10:58.267Z,1.50
2022-08-04T11:13:30.349Z,1.80
2022-08-04T11:16:02.581Z,1.35
2022-08-04T11:18:50.259Z,1.50
2022-08-04T11:21:23.509Z,1.60
2022-08-04T11:24:03.212Z,1.80
2022-08-04T11:26:45.983Z,1.53
2022-08-04T11:29:25.959Z,1.50
2022-08-04T11:31:56.654Z,1.42
2022-08-04T11:34:26.431Z,1.50
2022-08-04T11:37:17.967Z,1.30
2022-08-04T11:40:32.539Z,1.92
2022-08-04T11:43:08.811Z,1.50
2022-08-04T11:45:45.673Z,1.63
2022-08-04T11:48:31.071Z,1.45
2022-08-04T11:51:02.405Z,1.33
2022-08-04T11:53:37.435Z,1.50
2022-08-04T11:56:11.251Z,1.60
2022-08-04T11:58:39.339Z,1.48
2022-08-04T12:01:20.034Z,1.20
2022-08-04T12:04:04.780Z,1.52
2022-08-04T12:07:04.595Z,1.48
2022-08-04T12:09:53.070Z,1.27
2022-08-04T12:12:29.817Z,1.20
2022-08-04T12:15:26.574Z,1.75
2022-08-04T12:18:22.857Z,1.40
2022-08-04T12:20:59.060Z,1.70
2022-08-04T12:23:32.714Z,1.55
2022-08-04T12:26:06.078Z,1.30
2022-08-04T12:29:07.289Z,1.48
2022-08-04T12:31:41.822Z,1.50
2022-08-04T12:34:14.842Z,3.13
2022-08-04T12:36:56.491Z,1.73
2022-08-04T12:39:25.833Z,1.50
2022-08-04T12:42:21.159Z,1.45
2022-08-04T12:44:54.122Z,1.50
2022-08-04T12:47:29.063Z,1.70
2022-08-04T12:50:02.382Z,1.58
2022-08-04T12:55:31.697Z,1.70
2022-08-04T12:58:00.230Z,1.58
2022-08-04T13:00:36.722Z,1.52
2022-08-04T13:03:14.545Z,1.65
2022-08-04T13:05:42.951Z,1.52
2022-08-04T13:08:13.803Z,1.50
2022-08-04T13:10:45.623Z,1.40
2022-08-04T13:13:16.993Z,1.40
2022-08-04T13:15:56.666Z,1.58
2022-08-04T13:18:30.028Z,1.42
2022-08-04T13:21:50.415Z,1.48
2022-08-04T13:24:22.819Z,1.40
2022-08-04T13:27:03.738Z,1.60
2022-08-04T13:30:24.520Z,1.92
2022-08-04T13:32:30.080Z,1.50
2022-08-04T13:35:00.063Z,1.30
2022-08-04T13:37:38.960Z,1.65
2022-08-04T13:40:09.120Z,1.70
2022-08-04T13:42:37.482Z,1.70
2022-08-04T13:45:07.431Z,1.67
2022-08-04T13:47:38.320Z,1.60
2022-08-04T13:50:16.466Z,1.70
2022-08-04T13:52:45.187Z,1.70
2022-08-04T13:55:26.205Z,1.80
2022-08-04T13:58:04.216Z,1.52
2022-08-04T14:00:44.664Z,1.70
2022-08-04T14:03:23.612Z,2.40
2022-08-04T14:06:13.521Z,1.52
2022-08-04T14:08:50.498Z,1.80
2022-08-04T14:12:06.631Z,1.50
2022-08-04T14:14:27.651Z,1.58
2022-08-04T14:17:03.290Z,1.73
2022-08-04T14:19:48.793Z,1.85
2022-08-04T14:22:27.751Z,2.28
2022-08-04T14:24:59.630Z,1.90
2022-08-04T14:27:28.925Z,1.65
2022-08-04T14:29:55.579Z,1.63
2022-08-04T14:32:26.250Z,1.42
2022-08-04T14:34:53.275Z,1.60
2022-08-04T14:37:22.597Z,1.90
2022-08-04T14:40:18.402Z,1.70
2022-08-04T14:42:43.804Z,1.67
2022-08-04T14:45:10.787Z,1.75
2022-08-04T14:47:52.596Z,1.58
2022-08-04T14:50:20.585Z,1.60
2022-08-04T14:52:47.274Z,1.98
2022-08-04T14:55:19.790Z,1.70
2022-08-04T14:58:34.169Z,1.90
2022-08-04T15:00:36.694Z,1.90
2022-08-04T15:03:08.730Z,1.63
2022-08-04T15:06:00.182Z,1.75
2022-08-04T15:08:23.844Z,1.63
2022-08-04T15:10:58.989Z,1.70
2022-08-04T15:13:30.266Z,1.45
2022-08-04T15:16:07.018Z,1.60
2022-08-04T15:18:37.192Z,1.70
2022-08-04T15:21:05.252Z,1.77
2022-08-04T15:23:38.619Z,1.40
2022-08-04T15:26:08.698Z,1.60
2022-08-04T15:28:38.403Z,1.55
2022-08-04T15:31:10.620Z,1.70
2022-08-04T15:33:56.849Z,1.70
2022-08-04T15:36:43.722Z,1.65
2022-08-04T15:39:19.079Z,1.63
2022-08-04T15:42:23.107Z,1.60
2022-08-04T15:44:55.778Z,1.50
2022-08-04T15:47:25.598Z,1.67
2022-08-04T15:50:06.420Z,1.75
2022-08-04T15:53:10.001Z,1.85
2022-08-04T15:55:39.518Z,1.60
2022-08-04T15:58:09.646Z,1.67
2022-08-04T16:00:59.480Z,1.50
2022-08-04T16:03:58.892Z,1.30
2022-08-04T16:06:22.296Z,1.30
2022-08-04T16:08:57.293Z,1.50
2022-08-04T16:11:32.589Z,1.50
2022-08-04T16:13:59.821Z,1.50
2022-08-04T16:16:31.766Z,1.70
2022-08-04T16:19:35.499Z,1.40
2022-08-04T16:22:04.481Z,1.58
2022-08-04T16:24:37.878Z,1.50
2022-08-04T16:27:09.742Z,1.42
2022-08-04T16:29:40.695Z,1.50
2022-08-04T16:32:15.503Z,1.60
2022-08-04T16:34:55.991Z,1.48
2022-08-04T16:37:29.163Z,1.30
2022-08-04T16:40:33.773Z,1.40
2022-08-04T16:43:06.252Z,1.70
2022-08-04T16:45:54.281Z,1.40
2022-08-04T16:48:29.434Z,1.67
2022-08-04T16:51:04.750Z,1.45
2022-08-04T16:53:58.713Z,1.20
2022-08-04T16:56:33.023Z,1.30
2022-08-04T16:59:07.334Z,1.50
2022-08-04T17:01:34.722Z,1.50
2022-08-04T17:04:07.017Z,1.30
2022-08-04T17:06:39.608Z,1.45
2022-08-04T17:09:10.750Z,1.38
2022-08-04T17:11:37.446Z,1.40
2022-08-04T17:14:06.132Z,1.20
2022-08-04T17:16:35.256Z,1.50
2022-08-04T17:19:02.527Z,1.50
2022-08-04T17:21:31.564Z,1.38
2022-08-04T17:24:15.528Z,1.33
2022-08-04T17:26:53.614Z,1.33
2022-08-04T17:29:22.644Z,1.40
2022-08-04T17:32:13.805Z,1.48
2022-08-04T17:34:40.542Z,1.20
2022-08-04T17:37:36.776Z,1.40
2022-08-04T17:40:06.823Z,1.67
2022-08-04T17:42:39.242Z,1.70
2022-08-04T17:48:03.078Z,1.50
2022-08-04T17:50:35.739Z,1.45
2022-08-04T17:53:11.965Z,1.50
2022-08-04T17:55:44.585Z,1.40
2022-08-04T17:58:23.145Z,1.30
2022-08-04T18:01:22.534Z,1.48
2022-08-04T18:03:53.303Z,1.40
2022-08-04T18:06:21.992Z,1.63
2022-08-04T18:08:57.431Z,1.60
2022-08-04T18:11:29.515Z,1.40
2022-08-04T18:14:08.008Z,1.42
2022-08-04T18:16:43.820Z,1.52
2022-08-04T18:19:18.882Z,1.35
2022-08-04T18:21:59.335Z,1.45
2022-08-04T18:24:35.404Z,1.45
2022-08-04T18:27:20.390Z,1.40
2022-08-04T18:30:15.390Z,1.40
2022-08-04T18:32:34.267Z,1.70
2022-08-04T18:40:52.851Z,1.77
2022-08-04T18:43:28.775Z,1.73
2022-08-04T18:45:58.019Z,1.60
2022-08-04T18:48:36.827Z,1.75
2022-08-04T18:51:11.064Z,1.50
2022-08-04T18:53:55.542Z,1.38
2022-08-04T18:56:32.475Z,2.20
2022-08-04T18:59:01.942Z,1.95
2022-08-04T19:02:13.065Z,1.90
2022-08-04T19:04:34.085Z,1.70
2022-08-04T19:09:53.887Z,1.60
2022-08-04T19:12:26.601Z,1.67
2022-08-04T19:14:58.857Z,1.60
2022-08-04T19:17:53.489Z,1.50
2022-08-04T19:20:25.700Z,1.50
2022-08-04T19:24:10.928Z,1.60
2022-08-04T19:26:03.815Z,1.75
2022-08-04T19:28:34.103Z,1.77
2022-08-04T19:31:01.385Z,1.80
2022-08-04T19:33:30.139Z,1.70
2022-08-04T19:36:17.337Z,1.98
2022-08-04T19:38:44.715Z,1.40
2022-08-04T19:41:14.837Z,1.90
2022-08-04T19:43:43.735Z,1.80
2022-08-04T19:46:11.317Z,1.67
2022-08-04T19:48:39.234Z,2.03
2022-08-04T19:51:05.911Z,1.90
2022-08-04T19:53:36.858Z,2.00
2022-08-04T19:56:04.703Z,1.70
2022-08-04T19:58:31.318Z,1.90
2022-08-04T20:00:57.965Z,1.77
2022-08-04T20:04:10.152Z,1.70
2022-08-04T20:06:11.832Z,2.28
2022-08-04T20:08:38.786Z,2.22
2022-08-04T20:11:15.980Z,1.90
2022-08-04T20:13:43.268Z,1.80
2022-08-04T20:16:28.845Z,1.83
2022-08-04T20:19:00.990Z,2.40
2022-08-04T20:21:36.560Z,2.20
2022-08-04T20:24:38.614Z,1.92
2022-08-04T20:27:07.730Z,2.10
2022-08-04T20:29:40.803Z,2.00
2022-08-04T20:32:10.359Z,2.00
2022-08-04T20:37:54.773Z,2.10
2022-08-04T20:40:13.615Z,2.10
2022-08-04T20:42:41.482Z,2.03
2022-08-04T20:45:16.104Z,2.50
2022-08-04T20:47:46.007Z,2.40
2022-08-04T20:50:29.822Z,2.20
2022-08-04T20:52:57.532Z,2.10
2022-08-04T20:55:25.391Z,2.20
2022-08-04T20:58:00.865Z,2.20
2022-08-04T21:00:30.460Z,1.88
2022-08-04T21:03:00.730Z,2.30
2022-08-04T21:05:28.206Z,2.30
2022-08-04T21:07:57.185Z,2.08
2022-08-04T21:10:27.640Z,2.30
2022-08-04T21:12:55.034Z,2.10
2022-08-04T21:15:26.264Z,2.03
2022-08-04T21:18:13.642Z,2.20
2022-08-04T21:20:43.083Z,2.15
2022-08-04T21:23:10.059Z,2.20
2022-08-04T21:28:23.371Z,2.00
2022-08-04T21:30:54.972Z,2.15
2022-08-04T21:33:28.136Z,2.40
2022-08-04T21:36:11.860Z,2.30
2022-08-04T21:38:39.194Z,1.90
2022-08-04T21:41:08.798Z,2.20
2022-08-04T21:43:43.151Z,2.03
2022-08-04T21:46:10.236Z,2.28
2022-08-04T21:48:38.291Z,2.10
2022-08-04T21:51:56.790Z,2.30
2022-08-04T21:54:07.955Z,2.40
2022-08-04T21:56:35.267Z,2.55
2022-08-04T21:59:07.143Z,2.15
2022-08-04T22:01:50.454Z,2.40
2022-08-04T22:04:19.563Z,2.20
2022-08-04T22:06:47.691Z,2.38
2022-08-04T22:09:18.941Z,2.40
2022-08-04T22:11:50.635Z,2.40
2022-08-04T22:14:27.278Z,2.70
2022-08-04T22:16:56.769Z,2.20
2022-08-04T22:19:39.952Z,2.30
2022-08-04T22:22:13.626Z,2.40
2022-08-04T22:24:53.135Z,2.13
2022-08-04T22:27:38.294Z,2.22
2022-08-04T22:30:10.520Z,2.35
2022-08-04T22:32:43.656Z,2.38
2022-08-04T22:35:42.908Z,2.08
2022-08-04T22:38:07.726Z,2.25
2022-08-04T22:40:38.394Z,2.72
2022-08-04T22:43:32.602Z,2.47
2022-08-04T22:45:51.733Z,2.45
2022-08-04T22:48:18.492Z,2.50
2022-08-04T22:50:45.115Z,2.42
2022-08-04T22:53:11.702Z,2.50
2022-08-04T22:56:06.695Z,2.40
2022-08-04T22:58:31.739Z,2.70
2022-08-04T23:00:58.709Z,2.60
2022-08-04T23:03:37.140Z,2.40
2022-08-04T23:06:07.171Z,2.30
2022-08-04T23:08:38.745Z,2.67
2022-08-04T23:11:09.930Z,2.60
2022-08-04T23:13:37.289Z,3.13
2022-08-04T23:16:06.510Z,2.80
2022-08-04T23:18:37.058Z,2.50
2022-08-04T23:21:09.849Z,2.60
2022-08-04T23:23:38.066Z,2.80
2022-08-04T23:26:14.347Z,2.80
2022-08-04T23:28:41.914Z,2.20
2022-08-04T23:31:10.134Z,2.60
2022-08-04T23:33:51.556Z,2.40
2022-08-04T23:36:29.517Z,2.55
2022-08-04T23:39:04.121Z,2.30
2022-08-04T23:41:54.269Z,2.40
2022-08-04T23:44:24.665Z,2.78
2022-08-04T23:46:59.616Z,2.47
2022-08-04T23:49:44.108Z,2.40
2022-08-04T23:52:28.193Z,2.50
2022-08-04T23:55:00.367Z,2.20
2022-08-04T23:57:31.164Z,2.40
